createdAt,value
2018-02-02T00:00:10.837Z,2.00
2018-02-02T00:02:38.295Z,2.00
2018-02-02T00:05:06.019Z,2.10
2018-02-02T00:07:33.510Z,2.00
2018-02-02T00:10:01.000Z,2.10
2018-02-02T00:12:29.219Z,2.10
2018-02-02T00:14:56.701Z,2.10
2018-02-02T00:17:24.173Z,2.10
2018-02-02T00:19:51.661Z,2.10
2018-02-02T00:22:19.919Z,2.10
2018-02-02T00:24:47.386Z,2.10
2018-02-02T00:27:15.623Z,2.00
2018-02-02T00:29:43.108Z,2.00
2018-02-02T00:32:10.589Z,2.00
2018-02-02T00:34:38.826Z,1.80
2018-02-02T00:37:06.283Z,1.80
2018-02-02T00:39:33.747Z,1.70
2018-02-02T00:42:01.326Z,1.70
2018-02-02T00:44:29.566Z,1.60
2018-02-02T00:46:57.040Z,1.60
2018-02-02T00:49:24.501Z,1.60
2018-02-02T00:51:57.663Z,1.50
2018-02-02T00:54:25.129Z,1.50
2018-02-02T00:56:52.607Z,1.50
2018-02-02T00:59:20.074Z,1.60
2018-02-02T01:01:48.321Z,1.60
2018-02-02T01:04:15.800Z,1.60
2018-02-02T01:06:43.289Z,1.60
2018-02-02T01:09:10.751Z,1.60
2018-02-02T01:11:38.240Z,1.70
2018-02-02T01:14:05.706Z,1.60
2018-02-02T01:16:33.168Z,1.50
2018-02-02T01:19:00.652Z,1.40
2018-02-02T01:21:28.133Z,1.50
2018-02-02T01:23:55.596Z,1.50
2018-02-02T01:26:23.058Z,1.50
2018-02-02T01:28:53.517Z,1.50
2018-02-02T01:31:20.966Z,1.50
2018-02-02T01:33:48.507Z,1.50
2018-02-02T01:36:15.951Z,1.50
2018-02-02T01:38:43.425Z,1.50
2018-02-02T01:41:10.879Z,1.40
2018-02-02T01:43:38.344Z,1.40
2018-02-02T01:46:05.804Z,1.40
2018-02-02T01:48:33.662Z,1.50
2018-02-02T01:51:01.122Z,1.60
2018-02-02T01:53:28.608Z,1.60
2018-02-02T01:55:56.060Z,1.50
2018-02-02T01:58:23.550Z,1.50
2018-02-02T02:00:51.008Z,1.50
2018-02-02T02:03:19.250Z,1.60
2018-02-02T02:05:46.699Z,1.50
2018-02-02T02:08:14.189Z,1.60
2018-02-02T02:10:41.646Z,1.70
2018-02-02T02:13:09.115Z,1.50
2018-02-02T02:15:37.347Z,1.20
2018-02-02T02:18:04.815Z,1.20
2018-02-02T02:20:32.287Z,1.30
2018-02-02T02:22:59.742Z,1.50
2018-02-02T02:25:27.190Z,1.50
2018-02-02T02:27:54.654Z,1.50
2018-02-02T02:30:22.107Z,1.40
2018-02-02T02:32:49.572Z,1.30
2018-02-02T02:35:17.385Z,1.30
2018-02-02T02:37:44.835Z,1.40
2018-02-02T02:40:12.320Z,1.40
2018-02-02T02:42:39.758Z,1.40
2018-02-02T02:45:07.227Z,1.50
2018-02-02T02:47:34.682Z,1.60
2018-02-02T02:50:02.158Z,1.60
2018-02-02T02:52:29.626Z,1.50
2018-02-02T02:54:57.093Z,1.50
2018-02-02T02:57:24.581Z,1.60
2018-02-02T02:59:52.812Z,1.50
2018-02-02T03:02:20.272Z,1.50
2018-02-02T03:04:47.737Z,1.40
2018-02-02T03:07:15.197Z,1.40
2018-02-02T03:09:42.681Z,1.30
2018-02-02T03:12:10.368Z,1.30
2018-02-02T03:14:37.852Z,1.30
2018-02-02T03:17:05.310Z,1.20
2018-02-02T03:19:32.853Z,1.30
2018-02-02T03:22:00.981Z,1.30
2018-02-02T03:24:28.463Z,1.40
2018-02-02T03:26:56.699Z,1.30
2018-02-02T03:29:24.155Z,1.30
2018-02-02T03:31:51.647Z,1.30
2018-02-02T03:34:19.870Z,1.50
2018-02-02T03:36:47.328Z,1.50
2018-02-02T03:39:15.198Z,1.50
2018-02-02T03:41:42.670Z,1.50
2018-02-02T03:44:10.126Z,1.60
2018-02-02T03:46:37.607Z,1.60
2018-02-02T03:49:05.079Z,1.60
2018-02-02T03:51:33.304Z,1.50
2018-02-02T03:54:00.778Z,1.50
2018-02-02T03:56:28.246Z,1.50
2018-02-02T03:58:55.722Z,1.50
2018-02-02T04:01:23.949Z,1.50
2018-02-02T04:03:51.408Z,1.50
2018-02-02T04:06:18.871Z,1.50
2018-02-02T04:08:46.340Z,1.50
2018-02-02T04:11:13.813Z,1.50
2018-02-02T04:13:41.260Z,1.50
2018-02-02T04:16:08.731Z,1.40
2018-02-02T04:18:36.195Z,1.40
2018-02-02T04:21:04.440Z,1.30
2018-02-02T04:23:31.905Z,1.30
2018-02-02T04:25:59.381Z,1.30
2018-02-02T04:28:27.602Z,1.20
2018-02-02T04:30:55.062Z,1.20
2018-02-02T04:33:23.359Z,1.20
2018-02-02T04:35:51.263Z,1.20
2018-02-02T04:38:19.482Z,1.20
2018-02-02T04:40:46.975Z,1.20
2018-02-02T04:43:14.449Z,1.20
2018-02-02T04:45:42.687Z,1.10
2018-02-02T04:48:10.150Z,1.10
2018-02-02T04:50:37.608Z,0.90
2018-02-02T04:53:05.066Z,0.90
2018-02-02T04:55:32.532Z,0.70
2018-02-02T04:58:00.828Z,0.60
2018-02-02T05:00:28.283Z,0.60
2018-02-02T05:02:55.773Z,0.60
2018-02-02T05:05:23.352Z,0.50
2018-02-02T05:07:50.816Z,0.60
2018-02-02T05:10:18.284Z,0.60
2018-02-02T05:12:45.762Z,0.60
2018-02-02T05:15:13.228Z,0.70
2018-02-02T05:17:40.686Z,0.60
2018-02-02T05:20:08.951Z,0.80
2018-02-02T05:22:36.423Z,0.80
2018-02-02T05:25:04.657Z,0.90
2018-02-02T05:27:32.151Z,0.90
2018-02-02T05:29:59.610Z,1.00
2018-02-02T05:32:27.079Z,1.00
2018-02-02T05:34:55.323Z,1.10
2018-02-02T05:37:24.298Z,1.10
2018-02-02T05:39:51.767Z,1.10
2018-02-02T05:42:19.235Z,1.10
2018-02-02T05:44:46.694Z,1.00
2018-02-02T05:47:14.182Z,1.10
2018-02-02T05:49:42.411Z,1.00
2018-02-02T05:52:09.891Z,1.00
2018-02-02T05:54:37.356Z,0.90
2018-02-02T05:57:04.823Z,0.90
2018-02-02T05:59:32.466Z,0.80
2018-02-02T06:01:59.931Z,0.90
2018-02-02T06:04:28.162Z,0.90
2018-02-02T06:06:56.178Z,0.80
2018-02-02T06:09:23.640Z,0.90
2018-02-02T06:11:51.086Z,0.80
2018-02-02T06:14:19.544Z,0.80
2018-02-02T06:16:47.010Z,0.90
2018-02-02T06:19:26.447Z,0.90
2018-02-02T06:21:53.928Z,0.90
2018-02-02T06:24:22.181Z,0.80
2018-02-02T06:26:49.626Z,0.80
2018-02-02T06:29:17.091Z,0.80
2018-02-02T06:31:44.552Z,0.80
2018-02-02T06:34:12.014Z,0.80
2018-02-02T06:36:39.466Z,0.70
2018-02-02T06:39:06.938Z,0.60
2018-02-02T06:41:34.394Z,0.60
2018-02-02T06:44:01.886Z,0.70
2018-02-02T06:46:30.103Z,0.60
2018-02-02T06:48:57.576Z,0.60
2018-02-02T06:51:25.022Z,0.60
2018-02-02T06:53:53.316Z,0.50
2018-02-02T06:56:20.775Z,0.40
2018-02-02T06:58:48.243Z,0.50
2018-02-02T07:01:15.720Z,0.50
2018-02-02T07:03:43.964Z,0.20
2018-02-02T07:06:11.431Z,0.20
2018-02-02T07:08:38.912Z,0.20
2018-02-02T07:11:07.152Z,0.20
2018-02-02T07:13:34.618Z,0.20
2018-02-02T07:16:02.074Z,0.30
2018-02-02T07:18:29.551Z,0.30
2018-02-02T07:20:58.040Z,0.40
2018-02-02T07:23:26.278Z,0.40
2018-02-02T07:25:55.263Z,0.40
2018-02-02T07:28:22.741Z,0.40
2018-02-02T07:30:50.210Z,0.30
2018-02-02T07:33:17.681Z,0.20
2018-02-02T07:35:45.925Z,0.20
2018-02-02T07:38:13.380Z,0.20
2018-02-02T07:40:40.847Z,0.30
2018-02-02T07:43:08.303Z,0.30
2018-02-02T07:45:35.763Z,0.40
2018-02-02T07:48:04.001Z,0.50
2018-02-02T07:50:31.473Z,0.50
2018-02-02T07:52:58.956Z,0.60
2018-02-02T07:55:27.183Z,0.70
2018-02-02T07:57:54.688Z,0.60
2018-02-02T08:00:22.165Z,0.60
2018-02-02T08:02:50.392Z,0.70
2018-02-02T08:05:18.234Z,0.70
2018-02-02T08:07:45.708Z,0.70
2018-02-02T08:10:13.196Z,0.70
2018-02-02T08:12:40.659Z,0.70
2018-02-02T08:15:08.131Z,0.90
2018-02-02T08:17:36.368Z,1.00
2018-02-02T08:20:03.838Z,1.00
2018-02-02T08:22:31.299Z,1.00
2018-02-02T08:24:59.374Z,1.00
2018-02-02T08:27:26.828Z,1.00
2018-02-02T08:29:54.291Z,1.00
2018-02-02T08:32:21.748Z,1.10
2018-02-02T08:34:49.239Z,1.10
2018-02-02T08:37:16.695Z,1.10
2018-02-02T08:39:44.173Z,1.20
2018-02-02T08:42:11.629Z,1.20
2018-02-02T08:44:39.163Z,1.20
2018-02-02T08:47:07.375Z,1.40
2018-02-02T08:49:34.847Z,1.30
2018-02-02T08:52:02.299Z,1.40
2018-02-02T08:54:29.754Z,1.40
2018-02-02T08:56:57.232Z,1.40
2018-02-02T08:59:24.704Z,1.40
2018-02-02T09:02:00.323Z,1.30
2018-02-02T09:04:27.785Z,1.30
2018-02-02T09:06:55.310Z,1.40
2018-02-02T09:09:22.780Z,1.60
2018-02-02T09:11:50.240Z,1.80
2018-02-02T09:14:17.701Z,1.70
2018-02-02T09:16:45.194Z,1.80
2018-02-02T09:19:13.441Z,1.70
2018-02-02T09:21:52.896Z,1.80
2018-02-02T09:24:20.348Z,1.80
2018-02-02T09:26:47.823Z,1.80
2018-02-02T09:29:15.800Z,1.80
2018-02-02T09:31:44.035Z,2.00
2018-02-02T09:34:11.495Z,2.00
2018-02-02T09:36:38.947Z,2.20
2018-02-02T09:39:06.536Z,2.10
2018-02-02T09:41:33.992Z,2.30
2018-02-02T09:44:01.458Z,2.30
2018-02-02T09:46:29.690Z,2.20
2018-02-02T09:48:57.180Z,2.20
2018-02-02T09:51:25.406Z,2.20
2018-02-02T09:53:52.875Z,2.20
2018-02-02T09:56:20.360Z,2.30
2018-02-02T09:58:47.827Z,2.40
2018-02-02T10:01:15.303Z,2.30
2018-02-02T10:03:43.541Z,2.30
2018-02-02T10:06:11.006Z,2.30
2018-02-02T10:08:38.471Z,2.40
2018-02-02T10:11:05.938Z,2.30
2018-02-02T10:13:33.403Z,2.50
2018-02-02T10:16:00.859Z,2.70
2018-02-02T10:18:28.317Z,2.70
2018-02-02T10:20:56.548Z,2.70
2018-02-02T10:23:24.031Z,2.70
2018-02-02T10:25:51.495Z,2.70
2018-02-02T10:28:18.954Z,2.70
2018-02-02T10:30:47.195Z,2.80
2018-02-02T10:33:14.655Z,2.70
2018-02-02T10:35:42.123Z,2.70
2018-02-02T10:38:09.592Z,2.70
2018-02-02T10:40:37.063Z,2.80
2018-02-02T10:43:04.544Z,2.70
2018-02-02T10:45:32.809Z,2.60
2018-02-02T10:48:00.286Z,2.60
2018-02-02T10:50:28.527Z,2.80
2018-02-02T10:52:56.004Z,2.70
2018-02-02T10:55:24.285Z,2.90
2018-02-02T10:57:52.523Z,3.00
2018-02-02T11:00:20.023Z,2.90
2018-02-02T11:02:53.060Z,3.00
2018-02-02T11:05:20.534Z,3.00
2018-02-02T11:07:48.931Z,3.10
2018-02-02T11:10:17.173Z,3.40
2018-02-02T11:12:44.668Z,3.40
2018-02-02T11:15:12.895Z,3.30
2018-02-02T11:17:40.362Z,3.30
2018-02-02T11:20:07.815Z,3.40
2018-02-02T11:22:35.284Z,3.30
2018-02-02T11:25:03.594Z,3.30
2018-02-02T11:27:31.654Z,3.30
2018-02-02T11:29:59.129Z,3.40
2018-02-02T11:32:27.351Z,3.20
2018-02-02T11:34:54.824Z,3.20
2018-02-02T11:37:22.283Z,3.30
2018-02-02T11:39:49.763Z,3.30
2018-02-02T11:42:17.218Z,3.20
2018-02-02T11:44:44.678Z,3.10
2018-02-02T11:47:12.171Z,3.00
2018-02-02T11:49:40.684Z,3.00
2018-02-02T11:52:08.135Z,3.00
2018-02-02T11:54:35.618Z,3.10
2018-02-02T11:57:03.083Z,3.00
2018-02-02T11:59:30.547Z,3.20
2018-02-02T12:01:58.023Z,3.10
2018-02-02T12:04:26.286Z,3.20
2018-02-02T12:06:54.524Z,3.30
2018-02-02T12:09:21.996Z,3.30
2018-02-02T12:11:50.454Z,3.30
2018-02-02T12:14:17.932Z,3.30
2018-02-02T12:16:45.411Z,3.30
2018-02-02T12:19:12.892Z,3.30
2018-02-02T12:21:46.948Z,3.70
2018-02-02T12:24:15.206Z,3.70
2018-02-02T12:40:05.724Z,3.70
2018-02-02T12:42:33.174Z,3.70
2018-02-02T12:45:00.642Z,3.40
2018-02-02T12:47:35.050Z,3.60
2018-02-02T12:50:17.423Z,3.50
2018-02-02T12:52:44.895Z,3.50
2018-02-02T12:55:12.347Z,3.50
2018-02-02T12:57:39.815Z,3.50
2018-02-02T13:00:07.287Z,3.50
2018-02-02T13:02:34.752Z,3.40
2018-02-02T13:05:02.207Z,3.40
2018-02-02T13:07:29.662Z,3.40
2018-02-02T13:09:57.139Z,3.50
2018-02-02T13:12:24.619Z,3.40
2018-02-02T13:14:52.843Z,3.30
2018-02-02T13:17:20.323Z,3.30
2018-02-02T13:19:48.564Z,3.40
2018-02-02T13:22:16.044Z,3.40
2018-02-02T13:24:43.516Z,3.30
2018-02-02T13:27:10.966Z,3.50
2018-02-02T13:29:38.455Z,3.50
2018-02-02T13:32:06.691Z,3.40
2018-02-02T13:34:34.146Z,3.40
2018-02-02T13:37:01.609Z,3.50
2018-02-02T13:39:29.083Z,3.40
2018-02-02T13:41:57.337Z,3.40
2018-02-02T13:44:24.791Z,3.40
2018-02-02T13:46:52.267Z,3.30
2018-02-02T13:49:21.241Z,3.30
2018-02-02T13:51:48.700Z,3.30
2018-02-02T13:54:16.164Z,3.30
2018-02-02T13:56:44.057Z,3.50
2018-02-02T13:59:11.510Z,3.30
2018-02-02T14:01:38.975Z,3.20
2018-02-02T14:04:06.422Z,3.30
2018-02-02T14:06:33.890Z,3.10
2018-02-02T14:09:02.112Z,3.50
2018-02-02T14:11:29.577Z,3.40
2018-02-02T14:13:57.028Z,3.50
2018-02-02T14:16:24.486Z,3.60
2018-02-02T14:18:51.939Z,3.60
2018-02-02T14:21:19.415Z,3.70
2018-02-02T14:23:46.872Z,3.60
2018-02-02T14:26:14.337Z,3.50
2018-02-02T14:28:41.798Z,3.50
2018-02-02T14:31:09.271Z,3.50
2018-02-02T14:33:36.734Z,3.30
2018-02-02T14:36:04.198Z,3.30
2018-02-02T14:38:32.426Z,3.40
2018-02-02T14:40:59.880Z,3.40
2018-02-02T14:43:28.136Z,3.50
2018-02-02T14:45:55.582Z,3.50
2018-02-02T14:48:23.043Z,3.60
2018-02-02T14:50:50.500Z,3.50
2018-02-02T14:53:17.984Z,3.50
2018-02-02T14:55:45.435Z,3.50
2018-02-02T14:58:12.903Z,3.60
2018-02-02T15:00:40.362Z,3.60
2018-02-02T15:03:07.860Z,3.50
2018-02-02T15:05:35.348Z,3.50
2018-02-02T15:08:04.300Z,3.40
2018-02-02T15:10:31.787Z,3.50
2018-02-02T15:13:00.015Z,3.40
2018-02-02T15:15:27.462Z,3.30
2018-02-02T15:17:54.927Z,3.40
2018-02-02T15:20:22.394Z,3.40
2018-02-02T15:23:06.635Z,3.40
2018-02-02T15:25:34.099Z,3.30
2018-02-02T15:28:01.576Z,3.20
2018-02-02T15:30:29.031Z,3.20
2018-02-02T15:32:56.547Z,3.20
2018-02-02T15:35:24.439Z,3.10
2018-02-02T15:37:51.905Z,3.10
2018-02-02T15:40:19.362Z,3.10
2018-02-02T15:42:48.340Z,3.00
2018-02-02T15:45:15.790Z,3.00
2018-02-02T15:47:43.278Z,3.10
2018-02-02T15:50:10.723Z,3.00
2018-02-02T15:52:38.196Z,3.00
2018-02-02T15:55:05.657Z,3.10
2018-02-02T15:57:33.107Z,3.00
2018-02-02T16:00:01.151Z,3.00
2018-02-02T16:02:28.604Z,3.00
2018-02-02T16:04:56.101Z,3.00
2018-02-02T16:07:23.644Z,3.00
2018-02-02T16:09:51.125Z,3.10
2018-02-02T16:12:19.352Z,3.10
2018-02-02T16:14:46.814Z,3.10
2018-02-02T16:17:14.279Z,3.10
2018-02-02T16:19:41.748Z,3.00
2018-02-02T16:22:09.222Z,3.00
2018-02-02T16:24:36.705Z,3.10
2018-02-02T16:27:04.924Z,3.00
2018-02-02T16:29:32.394Z,3.00
2018-02-02T16:32:01.387Z,2.90
2018-02-02T16:34:28.853Z,2.90
2018-02-02T16:36:56.367Z,3.00
2018-02-02T16:39:23.815Z,3.00
2018-02-02T16:41:51.276Z,2.90
2018-02-02T16:44:19.736Z,2.90
2018-02-02T16:46:47.990Z,2.90
2018-02-02T16:49:15.443Z,2.90
2018-02-02T16:51:42.907Z,2.80
2018-02-02T16:54:11.149Z,2.90
2018-02-02T16:56:38.607Z,2.90
2018-02-02T16:59:06.080Z,2.80
2018-02-02T17:01:33.539Z,2.90
2018-02-02T17:04:01.004Z,2.90
2018-02-02T17:06:29.229Z,2.90
2018-02-02T17:08:56.775Z,2.90
2018-02-02T17:11:24.242Z,2.90
2018-02-02T17:13:51.704Z,2.90
2018-02-02T17:16:19.216Z,2.80
2018-02-02T17:18:46.696Z,2.90
2018-02-02T17:21:14.922Z,2.90
2018-02-02T17:23:42.388Z,2.80
2018-02-02T17:26:09.862Z,2.80
2018-02-02T17:28:38.089Z,2.80
2018-02-02T17:31:05.555Z,2.80
2018-02-02T17:33:33.039Z,2.80
2018-02-02T17:36:00.512Z,2.80
2018-02-02T17:38:28.739Z,2.80
2018-02-02T17:40:56.214Z,2.80
2018-02-02T17:43:24.522Z,2.80
2018-02-02T17:45:53.490Z,2.80
2018-02-02T17:48:20.953Z,2.80
2018-02-02T17:50:48.402Z,2.80
2018-02-02T17:53:16.629Z,2.80
2018-02-02T17:55:44.088Z,2.80
2018-02-02T17:58:11.552Z,2.80
2018-02-02T18:00:39.911Z,2.70
2018-02-02T18:03:09.074Z,2.70
2018-02-02T18:05:36.538Z,2.70
2018-02-02T18:08:04.003Z,2.70
2018-02-02T18:10:31.459Z,2.70
2018-02-02T18:12:58.920Z,2.80
2018-02-02T18:15:26.396Z,2.80
2018-02-02T18:17:55.187Z,2.80
2018-02-02T18:20:23.426Z,2.80
2018-02-02T18:22:50.882Z,2.80
2018-02-02T18:25:18.352Z,2.80
2018-02-02T18:27:45.810Z,2.90
2018-02-02T18:30:13.277Z,2.90
2018-02-02T18:32:40.744Z,2.90
2018-02-02T18:35:10.550Z,3.00
2018-02-02T18:37:38.033Z,2.90
2018-02-02T18:40:06.776Z,3.00
2018-02-02T18:42:34.225Z,3.00
2018-02-02T18:45:01.679Z,3.00
2018-02-02T18:47:29.203Z,3.00
2018-02-02T18:49:56.654Z,3.00
2018-02-02T18:52:24.136Z,2.90
2018-02-02T18:54:51.594Z,2.90
2018-02-02T18:57:19.065Z,2.90
2018-02-02T18:59:46.534Z,3.00
2018-02-02T19:02:14.004Z,3.00
2018-02-02T19:04:41.467Z,3.00
2018-02-02T19:07:09.716Z,3.00
2018-02-02T19:09:37.240Z,3.00
2018-02-02T19:12:04.703Z,2.90
2018-02-02T19:14:32.368Z,2.90
2018-02-02T19:16:59.877Z,2.80
2018-02-02T19:19:27.327Z,2.80
2018-02-02T19:21:56.301Z,2.90
2018-02-02T19:24:23.776Z,2.90
2018-02-02T19:26:51.279Z,2.90
2018-02-02T19:29:18.778Z,3.00
2018-02-02T19:31:46.262Z,3.00
2018-02-02T19:34:14.487Z,3.00
2018-02-02T19:36:41.963Z,3.00
2018-02-02T19:39:09.447Z,3.00
2018-02-02T19:41:36.920Z,2.90
2018-02-02T19:44:05.150Z,2.90
2018-02-02T19:46:32.727Z,2.90
2018-02-02T19:49:00.395Z,2.80
2018-02-02T19:51:28.641Z,2.70
2018-02-02T19:53:56.151Z,2.70
2018-02-02T19:56:24.526Z,2.80
2018-02-02T19:58:52.011Z,2.80
2018-02-02T20:01:19.487Z,2.80
2018-02-02T20:03:47.067Z,2.90
2018-02-02T20:06:14.625Z,2.80
2018-02-02T20:08:42.154Z,2.70
2018-02-02T20:11:10.468Z,2.70
2018-02-02T20:13:37.984Z,2.80
2018-02-02T20:16:05.524Z,2.70
2018-02-02T20:18:33.839Z,2.70
2018-02-02T20:21:01.349Z,2.70
2018-02-02T20:23:28.955Z,2.60
2018-02-02T20:25:56.465Z,2.50
2018-02-02T20:28:24.699Z,2.50
2018-02-02T20:30:52.156Z,2.50
2018-02-02T20:33:19.632Z,2.40
2018-02-02T20:35:47.149Z,2.50
2018-02-02T20:38:14.637Z,2.50
2018-02-02T20:40:42.106Z,2.50
2018-02-02T20:43:09.630Z,2.60
2018-02-02T20:45:37.140Z,2.70
2018-02-02T20:48:04.701Z,2.70
2018-02-02T20:50:32.205Z,2.70
2018-02-02T20:52:59.707Z,2.80
2018-02-02T20:55:27.162Z,2.80
2018-02-02T20:57:54.681Z,2.70
2018-02-02T21:00:22.156Z,2.70
2018-02-02T21:02:49.654Z,2.70
2018-02-02T21:05:17.135Z,2.80
2018-02-02T21:07:44.600Z,2.70
2018-02-02T21:10:12.084Z,2.80
2018-02-02T21:12:39.547Z,2.80
2018-02-02T21:15:07.060Z,2.70
2018-02-02T21:17:35.305Z,2.70
2018-02-02T21:20:02.775Z,2.70
2018-02-02T21:22:30.266Z,2.70
2018-02-02T21:24:57.810Z,2.70
2018-02-02T21:27:26.121Z,2.70
2018-02-02T21:29:53.600Z,2.60
2018-02-02T21:32:21.110Z,2.70
2018-02-02T21:34:49.337Z,2.60
2018-02-02T21:37:16.797Z,2.60
2018-02-02T21:39:44.284Z,2.70
2018-02-02T21:42:12.507Z,2.70
2018-02-02T21:44:40.019Z,2.70
2018-02-02T21:47:08.239Z,2.70
2018-02-02T21:49:35.700Z,2.60
2018-02-02T21:52:03.243Z,2.60
2018-02-02T21:54:30.705Z,2.60
2018-02-02T21:56:58.168Z,2.50
2018-02-02T21:59:25.658Z,2.50
2018-02-02T22:01:53.128Z,2.50
2018-02-02T22:04:20.605Z,2.50
2018-02-02T22:06:48.879Z,2.50
2018-02-02T22:09:17.173Z,2.40
2018-02-02T22:11:44.706Z,2.40
2018-02-02T22:14:12.206Z,2.30
2018-02-02T22:16:39.655Z,2.30
2018-02-02T22:19:07.115Z,2.30
2018-02-02T22:21:34.626Z,2.30
2018-02-02T22:24:02.090Z,2.30
2018-02-02T22:26:29.539Z,2.30
2018-02-02T22:28:57.778Z,2.20
2018-02-02T22:31:25.293Z,2.10
2018-02-02T22:33:53.564Z,2.10
2018-02-02T22:36:21.788Z,2.10
2018-02-02T22:38:49.298Z,2.10
2018-02-02T22:41:33.000Z,2.10
2018-02-02T22:44:00.462Z,2.10
2018-02-02T22:46:28.705Z,1.90
2018-02-02T22:48:56.175Z,1.90
2018-02-02T22:51:23.634Z,1.80
2018-02-02T22:53:51.110Z,1.90
2018-02-02T22:56:18.593Z,2.00
2018-02-02T22:58:46.058Z,2.00
2018-02-02T23:01:14.279Z,2.10
2018-02-02T23:03:41.882Z,2.10
2018-02-02T23:06:10.166Z,2.20
2018-02-02T23:08:38.379Z,2.10
2018-02-02T23:11:06.675Z,2.20
2018-02-02T23:13:34.168Z,2.10
2018-02-02T23:16:01.636Z,2.10
2018-02-02T23:18:29.903Z,2.10
2018-02-02T23:20:57.364Z,2.10
2018-02-02T23:23:25.604Z,2.20
2018-02-02T23:25:53.068Z,2.20
2018-02-02T23:28:20.516Z,2.20
2018-02-02T23:30:48.018Z,2.10
2018-02-02T23:33:15.464Z,2.10
2018-02-02T23:35:42.952Z,2.20
2018-02-02T23:38:10.446Z,2.10
2018-02-02T23:40:37.939Z,2.20
2018-02-02T23:43:05.414Z,2.20
2018-02-02T23:45:33.625Z,2.20
2018-02-02T23:48:01.103Z,2.20
2018-02-02T23:50:28.564Z,2.20
2018-02-02T23:52:56.038Z,2.20
2018-02-02T23:55:23.488Z,2.10
2018-02-02T23:57:52.462Z,2.00
